Time;durP1;ratioP1;P1;durP2;ratioP2;P2;SDS_P1;SDS_P2;PMS_P1;PMS_P2;Temp;Humidity;BMP_temperature;BMP_pressure;BME280_temperature;BME280_humidity;BME280_pressure;Samples;Min_cycle;Max_cycle;Signal;HPM_P1;HPM_P2
2022/08/01 00:03:31;;;;;;;;;;;;;;;15.77;100.00;100036.68;651080;1289;22547;-89
2022/08/01 00:18:35;;;;;;;5.80;3.70;;;;;;;15.56;100.00;100035.80;650367;1289;22880;-88
2022/08/01 00:33:38;;;;;;;13.10;3.10;;;;;;;15.39;100.00;100034.43;650898;1288;22589;-88
2022/08/01 00:48:41;;;;;;;6.80;3.90;;;;;;;15.15;100.00;100033.62;651814;1285;25343;-88
2022/08/01 01:03:45;;;;;;;12.00;6.60;;;;;;;15.00;100.00;100046.01;651953;1285;23610;-88
2022/08/01 01:19:08;;;;;;;14.20;7.40;;;;;;;15.31;100.00;100044.34;652209;1285;22569;-88
2022/08/01 01:34:15;;;;;;;17.90;6.50;;;;;;;15.46;100.00;100046.92;651665;1286;22562;-89
2022/08/01 01:49:23;;;;;;;19.50;5.70;;;;;;;15.61;100.00;100036.30;651622;1286;24260;-89
2022/08/01 02:04:28;;;;;;;35.70;7.10;;;;;;;15.83;100.00;100041.61;651509;1286;25603;-88
2022/08/01 02:19:34;;;;;;;16.80;5.50;;;;;;;15.91;100.00;100043.28;652076;1286;23006;-88
2022/08/01 02:34:42;;;;;;;15.30;6.50;;;;;;;16.08;100.00;100049.95;651589;1286;32463;-86
2022/08/01 02:49:48;;;;;;;15.60;7.00;;;;;;;16.12;100.00;100053.52;651723;1285;23513;-90
2022/08/01 03:04:58;;;;;;;32.30;7.30;;;;;;;16.23;100.00;100059.19;651010;1286;753131;-89
2022/08/01 03:20:03;;;;;;;14.50;5.80;;;;;;;16.23;100.00;100063.83;653781;1284;22704;-86
2022/08/01 03:35:07;;;;;;;13.30;7.00;;;;;;;16.14;100.00;100066.73;652030;1286;24208;-88
2022/08/01 03:50:13;;;;;;;13.70;7.20;;;;;;;16.15;100.00;100067.96;651388;1286;24234;-88
2022/08/01 04:05:17;;;;;;;14.60;8.20;;;;;;;16.21;100.00;100075.48;652265;1285;24522;-87
2022/08/01 04:20:21;;;;;;;11.80;6.50;;;;;;;16.24;100.00;100078.13;652244;1286;139518;-87
2022/08/01 04:35:26;;;;;;;15.50;7.20;;;;;;;16.45;100.00;100080.33;651981;1285;140447;-89
2022/08/01 04:50:50;;;;;;;18.80;8.40;;;;;;;16.89;100.00;100072.59;651613;1286;139435;-87
2022/08/01 05:05:54;;;;;;;25.20;11.40;;;;;;;17.18;100.00;100080.59;658786;1286;140227;-88
2022/08/01 05:20:58;;;;;;;27.30;11.90;;;;;;;17.17;100.00;100094.37;651678;1286;139200;-89
2022/08/01 05:36:01;;;;;;;27.40;12.30;;;;;;;17.59;100.00;100091.93;652512;1286;139894;-88
2022/08/01 05:51:04;;;;;;;21.80;11.80;;;;;;;17.95;100.00;100096.34;654391;1284;141384;-87
2022/08/01 06:06:07;;;;;;;16.30;9.70;;;;;;;18.56;100.00;100101.77;655074;1285;140051;-88
2022/08/01 06:21:11;;;;;;;12.30;8.60;;;;;;;19.14;100.00;100102.27;654348;1285;140332;-88
2022/08/01 06:36:14;;;;;;;10.20;6.70;;;;;;;19.49;100.00;100103.60;656748;1286;139614;-88
2022/08/01 06:51:19;;;;;;;9.00;6.40;;;;;;;20.02;100.00;100108.54;657024;1286;139014;-87
2022/08/01 07:06:24;;;;;;;9.30;6.80;;;;;;;20.43;100.00;100108.75;656115;1286;140345;-88
2022/08/01 07:21:28;;;;;;;8.40;4.90;;;;;;;21.30;100.00;100100.45;653828;1286;138931;-88
2022/08/01 07:36:43;;;;;;;3.40;2.90;;;;;;;22.01;100.00;100083.91;655234;1286;139382;-87
2022/08/01 07:51:48;;;;;;;6.70;2.70;;;;;;;22.24;95.77;100084.30;654950;1286;138793;-89
2022/08/01 08:07:06;;;;;;;3.70;2.00;;;;;;;23.43;91.47;100085.55;655691;1286;138978;-88
2022/08/01 08:22:11;;;;;;;4.10;2.10;;;;;;;25.19;86.05;100083.56;656565;1285;140800;-90
2022/08/01 08:37:15;;;;;;;5.70;2.10;;;;;;;24.45;78.56;100090.91;654885;1286;140099;-89
2022/08/01 08:52:20;;;;;;;4.00;1.90;;;;;;;24.90;78.16;100097.65;656531;1282;139220;-89
2022/08/01 09:07:25;;;;;;;3.30;1.60;;;;;;;24.89;70.61;100102.73;659283;1280;139032;-89
2022/08/01 09:22:33;;;;;;;2.00;1.20;;;;;;;25.49;65.83;100111.95;661157;1280;139301;-89
2022/08/01 09:37:36;;;;;;;2.30;1.40;;;;;;;26.41;64.86;100107.29;660152;1280;138468;-88
2022/08/01 09:52:56;;;;;;;2.00;1.20;;;;;;;27.15;62.80;100109.80;660831;1280;138922;-88
2022/08/01 10:08:03;;;;;;;2.60;1.20;;;;;;;27.37;59.84;100109.69;661530;1280;138664;-84
2022/08/01 10:23:11;;;;;;;1.60;1.00;;;;;;;28.01;59.47;100121.33;660222;1280;139683;-82
2022/08/01 10:38:17;;;;;;;2.60;1.30;;;;;;;29.08;57.64;100109.73;662164;1280;138889;-88
2022/08/01 10:53:24;;;;;;;3.40;1.00;;;;;;;28.87;54.93;100095.73;660458;1280;138048;-80
2022/08/01 11:08:51;;;;;;;3.60;1.10;;;;;;;29.23;55.28;100086.66;659437;1280;140071;-82
2022/08/01 11:23:56;;;;;;;1.70;1.20;;;;;;;29.77;52.71;100083.53;657254;1280;140338;-84
2022/08/01 11:39:00;;;;;;;1.90;1.10;;;;;;;30.58;53.21;100070.13;657591;1281;139479;-90
2022/08/01 11:54:03;;;;;;;4.30;1.80;;;;;;;30.52;52.62;100068.90;657296;1280;139759;-90
2022/08/01 12:09:19;;;;;;;3.40;1.80;;;;;;;29.56;53.52;100063.98;657017;1280;138547;-89
2022/08/01 12:24:23;;;;;;;4.30;1.60;;;;;;;30.69;52.20;100065.23;656680;1281;138810;-86
2022/08/01 12:39:34;;;;;;;2.50;1.30;;;;;;;30.45;52.15;100059.65;655218;1280;139232;-85
2022/08/01 12:55:11;;;;;;;4.00;1.50;;;;;;;30.60;52.37;100068.95;655523;1281;138894;-84
2022/08/01 13:10:25;;;;;;;3.70;2.00;;;;;;;30.73;52.08;100079.24;656236;1280;139460;-85
2022/08/01 13:25:28;;;;;;;4.40;1.60;;;;;;;31.37;51.61;100074.90;657358;1280;139403;-84
2022/08/01 13:40:31;;;;;;;2.30;1.60;;;;;;;31.30;51.72;100063.94;655636;1280;139516;-85
2022/08/01 13:55:35;;;;;;;2.80;1.70;;;;;;;31.78;50.58;100068.71;657225;1280;138876;-85
2022/08/01 14:10:39;;;;;;;4.40;1.40;;;;;;;32.08;51.73;100073.84;656795;1280;138094;-85
2022/08/01 14:25:45;;;;;;;3.10;1.70;;;;;;;31.63;50.60;100078.74;656568;1280;139564;-87
2022/08/01 14:41:07;;;;;;;2.40;1.70;;;;;;;33.94;50.01;100086.61;655434;1280;138069;-86
2022/08/01 14:56:11;;;;;;;3.20;2.20;;;;;;;36.20;45.03;100082.67;656628;1280;139566;-85
2022/08/01 15:11:15;;;;;;;3.80;2.10;;;;;;;30.15;50.88;100082.72;656903;1280;321972;-84
2022/08/01 15:26:18;;;;;;;4.00;2.10;;;;;;;29.30;53.70;100081.91;657237;1280;139116;-85
2022/08/01 15:41:21;;;;;;;3.90;2.20;;;;;;;29.15;54.47;100082.54;655706;1280;138104;-88
2022/08/01 15:56:24;;;;;;;5.00;2.30;;;;;;;28.84;55.18;100076.45;656999;1280;139237;-84
2022/08/01 16:11:28;;;;;;;3.40;2.30;;;;;;;28.82;56.25;100080.08;657489;1280;138247;-83
2022/08/01 16:26:31;;;;;;;6.10;2.80;;;;;;;29.50;55.38;100088.45;657067;1280;138091;-82
2022/08/01 16:41:35;;;;;;;3.80;2.40;;;;;;;29.45;54.97;100092.23;657273;1279;138548;-82
2022/08/01 16:56:39;;;;;;;6.30;2.90;;;;;;;29.07;55.01;100093.83;657451;1280;138164;-82
2022/08/01 17:11:43;;;;;;;18.40;10.90;;;;;;;28.31;57.00;100097.05;656409;1281;139496;-84
2022/08/01 17:26:46;;;;;;;10.20;6.80;;;;;;;27.48;58.82;100102.80;657047;1280;139203;-84
2022/08/01 17:41:50;;;;;;;12.90;7.90;;;;;;;26.98;60.35;100108.44;658489;1279;138871;-83
2022/08/01 17:56:54;;;;;;;15.20;10.50;;;;;;;26.81;61.92;100122.10;656823;1280;26467;-83
2022/08/01 18:11:59;;;;;;;15.30;9.20;;;;;;;26.59;64.20;100134.80;656557;1280;22559;-84
2022/08/01 18:27:05;;;;;;;7.10;3.30;;;;;;;26.08;65.89;100132.23;656611;1280;22707;-83
2022/08/01 18:42:09;;;;;;;5.70;4.60;;;;;;;25.53;67.34;100145.55;657090;1280;24389;-83
2022/08/01 18:57:12;;;;;;;5.00;3.30;;;;;;;25.02;69.48;100163.31;658432;1280;22705;-85
2022/08/01 19:12:16;;;;;;;4.90;3.20;;;;;;;24.53;71.66;100181.41;655910;1280;23476;-85
2022/08/01 19:27:23;;;;;;;9.90;4.60;;;;;;;24.53;72.60;100199.55;658457;1280;24832;-85
2022/08/01 19:42:28;;;;;;;30.40;15.10;;;;;;;24.55;74.41;100213.01;677381;1279;23303;-84
2022/08/01 19:57:34;;;;;;;33.80;14.20;;;;;;;24.28;78.02;100220.33;659528;1280;24623;-84
2022/08/01 20:12:49;;;;;;;12.80;7.60;;;;;;;24.10;79.58;100225.52;655834;1280;22550;-84
2022/08/01 20:27:53;;;;;;;8.40;5.20;;;;;;;24.03;78.78;100229.65;656287;1280;25440;-84
2022/08/01 20:42:58;;;;;;;7.70;5.00;;;;;;;24.08;78.00;100231.77;658627;1280;22699;-84
2022/08/01 20:58:02;;;;;;;6.90;4.30;;;;;;;23.91;78.25;100240.17;657446;1280;24280;-83
2022/08/01 21:13:11;;;;;;;7.80;4.90;;;;;;;23.78;78.97;100242.52;656450;1278;26552;-83
2022/08/01 21:28:20;;;;;;;4.90;3.70;;;;;;;23.35;80.84;100248.58;655799;1280;25397;-83
2022/08/01 21:43:23;;;;;;;5.40;3.60;;;;;;;23.03;81.01;100258.25;656004;1280;25538;-83
2022/08/01 21:58:37;;;;;;;5.90;3.70;;;;;;;22.46;82.06;100278.13;656710;1280;22812;-84
2022/08/01 22:13:40;;;;;;;6.90;4.20;;;;;;;22.09;83.30;100285.38;655519;1280;23544;-84
2022/08/01 22:28:44;;;;;;;10.50;6.40;;;;;;;21.69;84.35;100297.92;656059;1280;24095;-84
2022/08/01 22:43:59;;;;;;;9.60;4.00;;;;;;;21.04;86.26;100304.48;655522;1280;24657;-84
2022/08/01 22:59:13;;;;;;;5.10;3.40;;;;;;;20.49;87.84;100313.04;655305;1280;29681;-84
2022/08/01 23:14:21;;;;;;;14.90;8.00;;;;;;;20.22;91.47;100324.98;655756;1279;23530;-84
2022/08/01 23:29:26;;;;;;;10.20;5.90;;;;;;;20.03;93.15;100328.73;655471;1280;22705;-84
2022/08/01 23:44:30;;;;;;;8.30;4.50;;;;;;;19.85;94.17;100328.88;655061;1280;25313;-83
2022/08/01 23:59:33;;;;;;;5.10;3.90;;;;;;;19.74;94.83;100337.83;655305;1280;23940;-83
